Time;durP1;ratioP1;P1;durP2;ratioP2;P2;SDS_P1;SDS_P2;PMS_P1;PMS_P2;Temp;Humidity;BMP_temperature;BMP_pressure;BME280_temperature;BME280_humidity;BME280_pressure;Samples;Min_cycle;Max_cycle;Signal;HPM_P1;HPM_P2
2023/06/08 00:00:39;;;;;;;4.32;2.85;;;;;;;15.64;63.03;94834.78;5093313;28;20031;-76
2023/06/08 00:03:05;;;;;;;3.15;2.63;;;;;;;15.51;63.33;94820.50;5092177;28;20059;-76
2023/06/08 00:05:31;;;;;;;4.05;2.83;;;;;;;15.60;63.25;94837.88;5091998;28;20083;-76
2023/06/08 00:07:57;;;;;;;6.18;3.17;;;;;;;15.58;63.45;94834.59;5084949;28;20029;-76
2023/06/08 00:10:23;;;;;;;3.90;2.88;;;;;;;15.70;63.42;94837.78;5071624;28;20043;-76
2023/06/08 00:12:48;;;;;;;4.93;3.47;;;;;;;15.64;63.63;94841.81;5038361;28;20043;-76
2023/06/08 00:15:13;;;;;;;3.50;2.60;;;;;;;15.64;62.97;94841.81;5088132;28;20028;-76
2023/06/08 00:17:39;;;;;;;4.13;2.72;;;;;;;15.58;63.24;94847.69;5090546;28;20040;-76
2023/06/08 00:20:08;;;;;;;4.80;3.38;;;;;;;15.42;64.16;94840.56;5093138;28;20065;-76
2023/06/08 00:22:36;;;;;;;3.97;2.75;;;;;;;15.43;63.72;94850.06;5091555;28;20054;-75
2023/06/08 00:25:03;;;;;;;5.95;2.80;;;;;;;15.36;63.91;94842.03;5091686;28;20442;-76
2023/06/08 00:27:29;;;;;;;3.97;2.90;;;;;;;15.35;64.24;94847.41;5092133;28;20117;-76
2023/06/08 00:29:55;;;;;;;4.68;3.30;;;;;;;15.56;63.72;94847.84;5091094;28;20024;-75
2023/06/08 00:32:20;;;;;;;4.50;2.85;;;;;;;15.45;64.02;94848.13;5091636;28;20036;-76
2023/06/08 00:34:46;;;;;;;6.20;2.70;;;;;;;15.44;64.06;94849.09;5087548;28;20082;-76
2023/06/08 00:37:11;;;;;;;5.50;2.83;;;;;;;15.54;64.04;94855.03;5071256;28;20040;-76
2023/06/08 00:39:37;;;;;;;3.50;2.63;;;;;;;15.39;64.14;94846.94;5070727;28;20033;-76
2023/06/08 00:42:03;;;;;;;4.28;3.00;;;;;;;15.48;64.17;94850.41;5072316;28;20028;-75
2023/06/08 00:44:28;;;;;;;4.25;2.78;;;;;;;15.46;64.35;94851.53;5054258;28;20032;-75
2023/06/08 00:46:54;;;;;;;4.13;2.90;;;;;;;15.45;64.04;94840.25;5070984;28;20085;-75
2023/06/08 00:49:20;;;;;;;5.50;3.00;;;;;;;15.51;64.21;94849.28;5054070;28;20053;-75
2023/06/08 00:51:45;;;;;;;4.47;2.85;;;;;;;15.49;65.10;94846.84;5070828;28;20028;-76
2023/06/08 00:54:12;;;;;;;3.78;2.65;;;;;;;15.39;65.59;94830.41;5086225;28;20020;-76
2023/06/08 00:56:38;;;;;;;3.42;2.53;;;;;;;15.25;65.77;94831.00;5074330;28;20129;-76
2023/06/08 00:59:05;;;;;;;6.05;2.85;;;;;;;15.28;65.29;94817.59;5073889;28;20093;-75
2023/06/08 01:01:30;;;;;;;5.13;2.97;;;;;;;15.23;65.71;94840.78;5072825;28;20118;-76
2023/06/08 01:04:05;;;;;;;3.83;3.10;;;;;;;15.33;65.50;94842.34;5070657;28;20115;-76
2023/06/08 01:06:35;;;;;;;5.45;2.80;;;;;;;15.30;65.61;94836.59;5070754;28;20464;-76
2023/06/08 01:09:22;;;;;;;3.30;2.53;;;;;;;15.24;65.33;94837.19;5054194;28;20695;-76
2023/06/08 01:12:11;;;;;;;6.35;2.83;;;;;;;15.12;65.74;94836.63;5082702;28;20036;-75
2023/06/08 01:14:41;;;;;;;5.15;3.05;;;;;;;15.15;66.19;94833.72;5080211;28;20520;-76
2023/06/08 01:17:09;;;;;;;4.57;2.70;;;;;;;15.10;66.95;94836.81;5077133;28;20024;-75
2023/06/08 01:20:02;;;;;;;5.05;2.97;;;;;;;15.14;66.99;94837.31;5072670;28;20441;-76
2023/06/08 01:22:29;;;;;;;6.88;3.17;;;;;;;15.10;66.55;94842.03;5072058;28;20086;-76
2023/06/08 01:24:56;;;;;;;4.60;3.05;;;;;;;15.12;66.17;94829.59;5090228;28;20102;-75
2023/06/08 01:27:28;;;;;;;5.82;2.90;;;;;;;15.11;66.75;94838.44;5090583;28;20028;-75
2023/06/08 01:29:54;;;;;;;4.03;3.10;;;;;;;14.96;66.94;94834.75;5078218;28;20040;-76
2023/06/08 01:32:20;;;;;;;4.90;2.83;;;;;;;15.01;67.49;94832.47;5069388;28;20025;-76
2023/06/08 01:34:46;;;;;;;6.07;3.05;;;;;;;15.06;66.48;94825.00;5069437;28;20065;-75
2023/06/08 01:37:52;;;;;;;5.47;3.15;;;;;;;14.96;66.64;94834.75;5036890;28;20123;-76
2023/06/08 01:40:49;;;;;;;6.53;2.70;;;;;;;15.10;66.06;94830.72;5070316;28;20403;-75
2023/06/08 01:43:14;;;;;;;6.55;3.13;;;;;;;15.00;66.28;94815.16;5061956;28;20044;-75
2023/06/08 01:45:44;;;;;;;4.95;2.80;;;;;;;14.89;66.61;94824.06;5053643;28;20470;-76
2023/06/08 01:48:10;;;;;;;3.88;2.72;;;;;;;14.94;66.80;94823.63;5063999;28;20112;-76
2023/06/08 01:50:35;;;;;;;4.50;3.03;;;;;;;14.94;66.70;94826.25;5073305;28;20024;-76
2023/06/08 01:53:01;;;;;;;3.92;3.10;;;;;;;14.94;66.87;94832.28;5073405;28;20036;-75
2023/06/08 01:55:27;;;;;;;5.25;3.03;;;;;;;14.89;67.39;94818.03;5073487;28;20032;-76
2023/06/08 01:57:53;;;;;;;4.55;2.95;;;;;;;15.01;66.73;94803.69;5071846;28;20037;-77
2023/06/08 02:00:19;;;;;;;4.55;2.50;;;;;;;15.14;66.55;94817.19;5036415;28;20046;-76
2023/06/08 02:02:44;;;;;;;4.65;2.85;;;;;;;15.08;66.97;94817.81;5071085;28;20021;-76
2023/06/08 02:05:11;;;;;;;4.05;2.88;;;;;;;15.02;66.61;94813.22;5074283;28;20038;-76
2023/06/08 02:07:39;;;;;;;3.83;3.20;;;;;;;15.04;66.99;94818.28;5090053;28;20024;-76
2023/06/08 02:10:05;;;;;;;4.28;2.80;;;;;;;15.06;66.96;94817.16;5073022;28;20460;-76
2023/06/08 02:12:31;;;;;;;4.68;2.97;;;;;;;15.08;66.88;94811.78;5056603;28;20467;-76
2023/06/08 02:14:57;;;;;;;3.15;2.55;;;;;;;15.22;66.01;94820.84;5072782;28;20036;-75
2023/06/08 02:17:27;;;;;;;3.95;2.97;;;;;;;15.05;66.49;94822.56;5073202;28;20535;-76
2023/06/08 02:19:53;;;;;;;4.35;2.67;;;;;;;15.14;66.10;94814.59;5073549;28;20138;-76
2023/06/08 02:22:19;;;;;;;5.60;2.60;;;;;;;15.15;66.09;94807.53;5073532;28;20039;-76
2023/06/08 02:24:45;;;;;;;4.00;2.70;;;;;;;15.09;66.62;94813.41;5074231;28;20040;-76
2023/06/08 02:27:11;;;;;;;4.90;2.63;;;;;;;14.99;67.16;94813.53;5070960;28;20028;-76
2023/06/08 02:29:36;;;;;;;3.80;2.83;;;;;;;14.98;67.44;94814.47;5036301;28;20411;-76
2023/06/08 02:32:02;;;;;;;4.20;2.80;;;;;;;14.91;67.23;94811.66;5070907;28;20024;-76
2023/06/08 02:34:28;;;;;;;4.97;2.97;;;;;;;14.79;68.05;94806.81;5073181;28;20028;-75
2023/06/08 02:36:53;;;;;;;4.28;2.97;;;;;;;14.87;67.30;94809.50;5089775;28;20110;-76
2023/06/08 02:39:18;;;;;;;4.88;2.90;;;;;;;14.77;67.35;94809.63;5092815;28;20016;-75
2023/06/08 02:41:44;;;;;;;4.25;3.40;;;;;;;14.66;67.53;94796.78;5076264;28;20070;-76
2023/06/08 02:44:10;;;;;;;6.13;3.10;;;;;;;14.71;67.35;94803.19;5093284;28;20028;-76
2023/06/08 02:46:36;;;;;;;7.10;3.20;;;;;;;14.65;67.40;94806.41;5093711;28;20039;-76
2023/06/08 02:49:02;;;;;;;6.85;3.08;;;;;;;14.54;67.47;94788.34;5094415;28;20044;-75
2023/06/08 02:51:27;;;;;;;3.83;2.97;;;;;;;14.53;67.74;94812.84;5093386;28;20060;-75
2023/06/08 02:53:52;;;;;;;4.63;2.88;;;;;;;14.50;67.51;94813.94;5075822;28;20035;-75
2023/06/08 02:56:18;;;;;;;3.45;3.03;;;;;;;14.49;67.68;94814.09;5095025;28;20040;-76
2023/06/08 02:58:46;;;;;;;5.65;3.00;;;;;;;14.57;67.90;94816.81;5093490;28;20477;-76
2023/06/08 03:01:14;;;;;;;3.78;3.10;;;;;;;14.47;67.80;94811.63;5094958;28;20035;-76
2023/06/08 03:03:43;;;;;;;5.43;3.10;;;;;;;14.40;67.85;94817.59;5093245;28;20028;-76
2023/06/08 03:06:09;;;;;;;4.20;3.05;;;;;;;14.43;68.13;94830.38;5076537;28;20040;-76
2023/06/08 03:08:36;;;;;;;4.90;3.08;;;;;;;14.50;68.00;94834.03;5092038;28;20070;-76
2023/06/08 03:11:02;;;;;;;4.13;3.03;;;;;;;14.42;68.20;94826.13;5094708;28;20035;-76
2023/06/08 03:13:27;;;;;;;5.55;3.33;;;;;;;14.34;68.38;94813.81;5075367;28;20032;-76
2023/06/08 03:15:53;;;;;;;4.47;3.10;;;;;;;14.40;68.45;94828.06;5072973;28;20040;-76
2023/06/08 03:18:18;;;;;;;4.82;2.97;;;;;;;14.50;67.85;94823.59;5072322;28;20032;-75
2023/06/08 03:20:47;;;;;;;5.22;3.10;;;;;;;14.45;68.10;94824.03;5072596;28;20040;-76
2023/06/08 03:23:13;;;;;;;3.53;2.95;;;;;;;14.34;68.74;94833.88;5072681;28;20032;-76
2023/06/08 03:25:38;;;;;;;6.57;2.80;;;;;;;14.34;68.59;94826.03;5072718;28;20029;-76
2023/06/08 03:28:04;;;;;;;6.45;3.20;;;;;;;14.38;68.58;94830.84;5055510;28;20039;-76
2023/06/08 03:30:30;;;;;;;5.90;3.78;;;;;;;14.49;68.15;94833.22;5074004;28;20506;-75
2023/06/08 03:32:56;;;;;;;5.30;3.20;;;;;;;14.47;68.55;94829.13;5072378;28;20406;-75
2023/06/08 03:35:21;;;;;;;3.63;2.75;;;;;;;14.54;68.22;94838.00;5039141;28;20033;-76
2023/06/08 03:37:47;;;;;;;6.55;3.22;;;;;;;14.62;68.01;94819.78;5072099;28;20044;-75
2023/06/08 03:40:12;;;;;;;5.05;3.20;;;;;;;14.58;67.73;94826.28;5073800;28;20482;-75
2023/06/08 03:42:38;;;;;;;3.50;2.92;;;;;;;14.55;67.91;94837.06;5055576;28;20024;-75
2023/06/08 03:45:03;;;;;;;4.30;3.03;;;;;;;14.54;68.17;94827.56;5073482;28;20112;-77
2023/06/08 03:47:31;;;;;;;3.92;2.80;;;;;;;14.65;67.67;94826.50;5073102;28;20025;-76
2023/06/08 03:49:56;;;;;;;5.68;2.88;;;;;;;14.69;67.57;94831.28;5071743;28;20063;-76
2023/06/08 03:52:22;;;;;;;4.07;3.22;;;;;;;14.71;67.41;94831.16;5073438;28;20025;-76
2023/06/08 03:54:47;;;;;;;5.50;3.00;;;;;;;14.84;67.01;94826.31;5071933;28;20123;-75
2023/06/08 03:57:13;;;;;;;3.75;2.70;;;;;;;14.74;67.14;94823.81;5055100;28;20036;-76
2023/06/08 03:59:39;;;;;;;4.43;2.92;;;;;;;14.72;67.42;94820.53;5073002;28;20032;-75
2023/06/08 04:02:05;;;;;;;4.95;3.42;;;;;;;14.85;67.04;94837.59;5055477;28;20471;-76
2023/06/08 04:04:30;;;;;;;4.18;3.00;;;;;;;14.94;66.54;94831.47;5073100;28;20078;-76
2023/06/08 04:07:01;;;;;;;5.25;3.00;;;;;;;15.13;66.19;94818.19;5075465;28;20464;-76
2023/06/08 04:09:28;;;;;;;5.05;3.42;;;;;;;16.00;63.89;94826.75;5090063;28;20028;-75
2023/06/08 04:11:53;;;;;;;3.85;2.72;;;;;;;16.71;61.43;94829.78;5079999;28;20059;-75
2023/06/08 04:14:19;;;;;;;5.43;2.70;;;;;;;17.33;59.43;94827.47;5085162;28;20393;-76
2023/06/08 04:16:44;;;;;;;3.60;2.58;;;;;;;17.69;58.14;94824.41;5088076;28;20063;-75
2023/06/08 04:19:10;;;;;;;4.13;2.60;;;;;;;17.41;57.84;94798.56;5086829;28;20498;-76
2023/06/08 04:21:36;;;;;;;4.20;2.78;;;;;;;17.84;57.29;94830.59;5051162;28;20036;-76
2023/06/08 04:24:01;;;;;;;4.97;2.72;;;;;;;18.30;55.90;94829.84;5068896;28;20028;-76
2023/06/08 04:26:28;;;;;;;4.63;2.50;;;;;;;18.24;55.50;94820.03;5086612;28;20106;-76
2023/06/08 04:28:54;;;;;;;4.55;2.65;;;;;;;18.79;54.92;94833.97;5063713;28;20074;-75
2023/06/08 04:31:20;;;;;;;5.88;2.92;;;;;;;19.28;54.07;94825.63;5069594;28;20025;-75
2023/06/08 04:33:45;;;;;;;5.13;2.88;;;;;;;19.06;53.93;94824.72;5068680;28;20094;-75
2023/06/08 04:36:11;;;;;;;7.07;2.90;;;;;;;19.46;53.37;94815.56;5071273;28;20702;-75
2023/06/08 04:38:37;;;;;;;5.55;3.05;;;;;;;19.72;52.05;94833.56;5079507;28;20047;-75
2023/06/08 04:41:02;;;;;;;6.47;3.35;;;;;;;19.77;52.05;94830.38;5083349;28;20036;-76
2023/06/08 04:43:31;;;;;;;6.50;3.08;;;;;;;19.88;51.78;94829.13;5084560;28;20028;-76
2023/06/08 04:45:59;;;;;;;6.40;3.13;;;;;;;18.82;54.32;94823.91;5086931;28;20115;-75
2023/06/08 04:48:28;;;;;;;6.80;3.20;;;;;;;18.28;55.79;94822.13;5070585;28;20127;-75
2023/06/08 04:50:59;;;;;;;8.27;3.08;;;;;;;18.55;55.72;94835.75;5082966;28;20032;-75
2023/06/08 04:53:25;;;;;;;7.88;3.03;;;;;;;18.31;55.77;94819.16;5053937;28;20546;-77
2023/06/08 04:55:57;;;;;;;5.90;3.25;;;;;;;18.28;56.46;94826.59;5070974;28;20524;-76
2023/06/08 04:58:23;;;;;;;6.53;3.20;;;;;;;18.29;56.11;94821.13;5083335;28;20051;-76
2023/06/08 05:00:49;;;;;;;5.70;3.22;;;;;;;18.25;56.49;94825.13;5069963;28;20040;-76
2023/06/08 05:03:15;;;;;;;7.03;3.40;;;;;;;18.36;56.24;94818.66;5077573;28;20124;-77
2023/06/08 05:05:41;;;;;;;6.28;3.30;;;;;;;18.43;55.63;94819.56;5070291;28;20032;-75
2023/06/08 05:08:06;;;;;;;5.75;3.30;;;;;;;18.41;55.59;94826.81;5067260;28;20026;-75
2023/06/08 05:10:32;;;;;;;5.55;3.42;;;;;;;18.49;55.21;94833.81;5067991;28;20561;-75
2023/06/08 05:12:58;;;;;;;5.78;2.90;;;;;;;18.57;54.98;94832.97;5068463;28;20542;-75
2023/06/08 05:15:23;;;;;;;5.82;3.80;;;;;;;18.63;54.96;94834.88;5069750;28;20107;-75
2023/06/08 05:17:49;;;;;;;7.20;3.38;;;;;;;18.77;54.67;94835.97;5068201;28;20020;-74
2023/06/08 05:20:14;;;;;;;8.05;2.95;;;;;;;18.73;54.85;94836.28;5067658;28;20103;-75
2023/06/08 05:22:40;;;;;;;4.85;3.05;;;;;;;18.58;54.92;94840.66;5069420;28;20115;-75
2023/06/08 05:25:06;;;;;;;5.85;3.00;;;;;;;18.50;54.65;94838.94;5068761;28;20452;-75
2023/06/08 05:27:31;;;;;;;6.00;3.90;;;;;;;18.58;55.27;94840.66;5070058;28;20446;-75
2023/06/08 05:29:57;;;;;;;6.93;4.20;;;;;;;18.47;55.04;94835.81;5069696;28;20487;-75
2023/06/08 05:32:22;;;;;;;6.85;3.10;;;;;;;18.60;55.21;94837.88;5051518;28;20029;-75
2023/06/08 05:34:48;;;;;;;5.35;3.05;;;;;;;18.44;55.56;94842.25;5068018;28;20040;-75
2023/06/08 05:37:14;;;;;;;4.45;2.90;;;;;;;18.45;55.50;94836.00;5067905;28;20407;-75
2023/06/08 05:39:39;;;;;;;4.05;2.88;;;;;;;18.74;54.99;94840.56;5069757;28;20144;-75
2023/06/08 05:42:06;;;;;;;6.40;3.28;;;;;;;18.84;54.60;94835.09;5070214;28;20103;-75
2023/06/08 05:44:32;;;;;;;4.43;2.97;;;;;;;18.82;53.70;94854.69;5069917;28;20074;-75
2023/06/08 05:46:57;;;;;;;5.07;2.75;;;;;;;18.71;54.42;94848.78;5069810;28;20028;-75
2023/06/08 05:49:24;;;;;;;6.30;3.20;;;;;;;18.57;54.91;94843.47;5070282;28;20494;-75
2023/06/08 05:51:50;;;;;;;10.13;3.15;;;;;;;18.56;54.60;94845.31;5070030;28;20079;-75
2023/06/08 05:54:15;;;;;;;8.23;3.15;;;;;;;18.59;55.29;94846.75;5053233;28;20048;-75
2023/06/08 05:56:41;;;;;;;6.90;3.15;;;;;;;18.58;55.36;94839.84;5070717;28;20557;-75
2023/06/08 05:59:06;;;;;;;6.18;3.13;;;;;;;18.43;54.76;94816.13;5078100;28;20460;-75
2023/06/08 06:01:32;;;;;;;5.70;3.00;;;;;;;18.55;54.47;94838.38;5091834;28;20056;-75
2023/06/08 06:03:57;;;;;;;4.25;3.00;;;;;;;18.83;54.33;94832.63;5061496;28;20073;-75
2023/06/08 06:06:22;;;;;;;6.25;3.17;;;;;;;19.00;53.72;94830.66;5069502;28;20089;-75
2023/06/08 06:08:48;;;;;;;4.95;2.92;;;;;;;18.92;53.80;94828.94;5089270;28;20031;-75
2023/06/08 06:11:13;;;;;;;6.45;2.90;;;;;;;19.38;52.85;94834.91;5072965;28;20032;-75
2023/06/08 06:13:39;;;;;;;3.60;2.80;;;;;;;19.39;52.39;94831.28;5076908;28;20053;-75
2023/06/08 06:16:04;;;;;;;5.20;2.90;;;;;;;19.16;52.11;94833.97;5082795;28;20036;-75
2023/06/08 06:18:30;;;;;;;4.90;2.67;;;;;;;19.55;51.70;94830.28;5081247;28;20032;-75
2023/06/08 06:20:55;;;;;;;3.78;2.83;;;;;;;19.62;52.78;94819.84;5094425;28;20426;-75
2023/06/08 06:23:21;;;;;;;3.95;2.70;;;;;;;19.99;52.49;94826.00;5094365;28;20459;-75
2023/06/08 06:25:46;;;;;;;4.15;3.00;;;;;;;19.80;52.35;94819.47;5094278;28;20044;-75
2023/06/08 06:28:12;;;;;;;5.10;3.15;;;;;;;19.70;52.60;94819.78;5078669;28;20199;-75
2023/06/08 06:30:37;;;;;;;4.78;2.65;;;;;;;19.78;52.62;94816.19;5058423;28;20033;-75
2023/06/08 06:33:03;;;;;;;4.32;2.90;;;;;;;20.11;50.89;94821.06;5073428;28;20035;-75
2023/06/08 06:35:28;;;;;;;5.80;2.95;;;;;;;20.26;51.32;94820.03;5088477;28;20036;-75
2023/06/08 06:37:54;;;;;;;4.90;2.55;;;;;;;20.37;50.57;94816.09;5057956;28;20085;-76
2023/06/08 06:40:20;;;;;;;7.07;2.78;;;;;;;20.18;50.73;94820.13;5091459;28;20417;-75
2023/06/08 06:42:46;;;;;;;8.07;3.05;;;;;;;20.43;50.62;94817.97;5092575;28;20012;-75
2023/06/08 06:45:11;;;;;;;4.70;2.72;;;;;;;20.46;50.38;94817.59;5091768;28;20040;-75
2023/06/08 06:47:40;;;;;;;4.53;2.53;;;;;;;20.60;50.27;94817.75;5074756;28;20028;-75
2023/06/08 06:50:09;;;;;;;5.85;2.78;;;;;;;20.46;50.40;94806.22;5092326;28;20048;-75
2023/06/08 06:52:34;;;;;;;9.43;3.20;;;;;;;20.67;49.99;94805.44;5093159;28;20016;-75
2023/06/08 06:55:02;;;;;;;4.75;2.88;;;;;;;20.77;50.16;94798.00;5093515;28;20036;-75
2023/06/08 06:57:28;;;;;;;5.55;2.95;;;;;;;21.01;50.22;94798.63;5093425;28;20511;-75
2023/06/08 06:59:54;;;;;;;5.75;2.60;;;;;;;21.12;49.75;94795.47;5094541;28;20089;-75
2023/06/08 07:02:19;;;;;;;5.95;3.00;;;;;;;21.39;47.86;94791.19;5093227;28;20077;-75
2023/06/08 07:04:45;;;;;;;6.68;3.10;;;;;;;21.35;47.84;94788.09;5093162;28;20028;-75
2023/06/08 07:07:10;;;;;;;5.38;2.72;;;;;;;21.25;49.14;94795.53;5093476;28;20042;-75
2023/06/08 07:09:35;;;;;;;6.20;3.00;;;;;;;21.38;48.23;94789.56;5059458;28;20085;-75
2023/06/08 07:12:01;;;;;;;5.88;2.72;;;;;;;21.58;47.95;94784.38;5075909;28;20033;-76
2023/06/08 07:14:27;;;;;;;5.75;2.65;;;;;;;21.44;48.72;94796.69;5093079;28;20027;-76
2023/06/08 07:16:52;;;;;;;8.02;3.92;;;;;;;21.72;48.10;94791.34;5076093;28;20035;-76
2023/06/08 07:19:17;;;;;;;3.80;2.60;;;;;;;22.18;46.84;94779.38;5075930;28;20024;-76
2023/06/08 07:21:43;;;;;;;7.90;2.97;;;;;;;22.00;48.45;94779.88;5092551;28;20028;-76
2023/06/08 07:24:08;;;;;;;4.07;2.80;;;;;;;22.24;46.56;94775.91;5075234;28;20028;-76
2023/06/08 07:26:34;;;;;;;3.75;2.80;;;;;;;22.27;46.71;94784.25;5094597;28;20028;-76
2023/06/08 07:29:00;;;;;;;5.45;2.83;;;;;;;21.99;48.20;94786.19;5094073;28;20525;-75
2023/06/08 07:31:26;;;;;;;4.75;2.90;;;;;;;21.83;48.12;94787.34;5092654;28;20078;-76
2023/06/08 07:33:53;;;;;;;5.35;3.00;;;;;;;22.07;47.35;94780.72;5092735;28;20038;-76
2023/06/08 07:36:19;;;;;;;6.63;2.72;;;;;;;21.74;48.81;94784.06;5076224;28;20090;-76
2023/06/08 07:38:44;;;;;;;6.18;3.30;;;;;;;22.01;48.39;94782.34;5093808;28;20481;-76
2023/06/08 07:41:10;;;;;;;5.25;3.13;;;;;;;22.21;47.19;94771.03;5093852;28;20036;-76
2023/06/08 07:43:35;;;;;;;5.75;2.90;;;;;;;22.29;46.94;94774.31;5092422;28;20115;-77
2023/06/08 07:46:01;;;;;;;8.23;2.90;;;;;;;22.32;47.79;94778.38;5075765;28;20035;-76
2023/06/08 07:48:26;;;;;;;3.35;2.75;;;;;;;22.16;47.36;94781.34;5092295;28;20043;-76
2023/06/08 07:50:51;;;;;;;10.82;3.10;;;;;;;22.22;46.93;94776.09;5093672;28;20032;-76
2023/06/08 07:53:17;;;;;;;4.25;2.58;;;;;;;22.42;46.42;94772.69;5093611;28;20024;-76
2023/06/08 07:55:43;;;;;;;3.60;2.45;;;;;;;22.43;47.61;94767.22;5094256;28;20093;-76
2023/06/08 07:58:08;;;;;;;4.93;2.63;;;;;;;22.51;46.24;94766.19;5075640;28;20032;-75
2023/06/08 08:00:35;;;;;;;5.43;2.50;;;;;;;22.46;46.58;94761.50;5091939;28;20031;-76
2023/06/08 08:03:03;;;;;;;6.50;2.80;;;;;;;22.65;46.62;94767.84;5092334;28;20024;-76
2023/06/08 08:05:29;;;;;;;8.48;3.17;;;;;;;22.60;46.81;94767.63;5076043;28;20486;-76
2023/06/08 08:07:54;;;;;;;3.95;2.70;;;;;;;22.59;46.18;94775.75;5093124;28;20031;-76
2023/06/08 08:10:20;;;;;;;3.95;2.80;;;;;;;22.58;46.03;94771.50;5093039;28;20032;-76
2023/06/08 08:12:45;;;;;;;4.93;3.00;;;;;;;22.73;45.80;94765.00;5093077;28;20024;-76
2023/06/08 08:15:10;;;;;;;3.80;2.50;;;;;;;23.26;45.47;94763.34;5058342;28;20089;-76
2023/06/08 08:17:36;;;;;;;3.88;3.00;;;;;;;23.28;45.37;94762.13;5093237;28;20040;-75
2023/06/08 08:20:03;;;;;;;3.00;2.60;;;;;;;23.04;44.77;94762.75;5092715;28;20470;-76
2023/06/08 08:22:28;;;;;;;6.53;2.90;;;;;;;23.08;46.12;94754.22;5075211;28;20524;-76
2023/06/08 08:24:54;;;;;;;4.30;2.90;;;;;;;23.01;45.18;94757.88;5058298;28;20044;-76
2023/06/08 08:27:19;;;;;;;4.45;3.03;;;;;;;23.11;45.57;94756.44;5092194;28;20395;-76
2023/06/08 08:29:44;;;;;;;3.63;2.67;;;;;;;23.27;44.99;94757.03;5075568;28;20032;-75
2023/06/08 08:32:10;;;;;;;5.35;2.70;;;;;;;23.32;46.00;94757.25;5092053;28;20678;-76
2023/06/08 08:34:36;;;;;;;4.18;2.80;;;;;;;23.49;45.04;94755.75;5091363;28;20089;-76
2023/06/08 08:37:01;;;;;;;4.78;2.95;;;;;;;23.09;45.73;94757.66;5091494;28;20023;-75
2023/06/08 08:39:27;;;;;;;4.25;3.00;;;;;;;22.98;46.52;94745.84;5091076;28;20074;-75
2023/06/08 08:41:54;;;;;;;5.63;2.90;;;;;;;23.10;45.43;94746.06;5091412;28;20165;-75
2023/06/08 08:44:20;;;;;;;3.67;2.53;;;;;;;22.40;46.89;94756.19;5074753;28;20574;-75
2023/06/08 08:46:46;;;;;;;5.63;2.90;;;;;;;22.64;46.92;94752.16;5074469;28;20154;-75
2023/06/08 08:49:15;;;;;;;3.40;2.72;;;;;;;22.85;45.09;94751.16;5074180;28;20511;-76
2023/06/08 08:51:43;;;;;;;3.70;2.95;;;;;;;22.99;45.01;94750.16;5057865;28;20063;-75
2023/06/08 08:54:09;;;;;;;4.30;2.70;;;;;;;23.18;45.22;94748.50;5091166;28;20024;-75
2023/06/08 08:56:37;;;;;;;4.80;2.83;;;;;;;23.24;44.99;94742.38;5074659;28;20040;-76
2023/06/08 08:59:03;;;;;;;5.40;2.83;;;;;;;23.19;44.79;94747.47;5074173;28;20020;-75
2023/06/08 09:01:30;;;;;;;4.80;2.50;;;;;;;23.25;43.89;94745.81;5091147;28;20044;-75
2023/06/08 09:03:55;;;;;;;4.15;2.50;;;;;;;23.49;44.71;94718.66;5091027;28;20028;-75
2023/06/08 09:06:21;;;;;;;3.50;2.70;;;;;;;23.43;44.17;94724.78;5092619;28;20492;-76
2023/06/08 09:08:48;;;;;;;4.40;2.90;;;;;;;23.61;44.47;94742.66;5091803;28;20502;-75
2023/06/08 09:11:13;;;;;;;4.20;2.90;;;;;;;23.77;43.89;94731.63;5091193;28;20028;-76
2023/06/08 09:13:38;;;;;;;3.75;2.55;;;;;;;23.73;44.09;94709.19;5091958;28;20032;-76
2023/06/08 09:16:09;;;;;;;4.50;2.78;;;;;;;23.93;43.26;94732.16;5092327;28;20036;-76
2023/06/08 09:18:34;;;;;;;3.70;2.47;;;;;;;23.69;43.45;94715.94;5090342;28;20027;-76
2023/06/08 09:21:24;;;;;;;3.80;2.30;;;;;;;24.06;43.61;94730.25;5090811;28;20406;-76
2023/06/08 09:24:11;;;;;;;4.85;2.88;;;;;;;23.94;42.96;94726.66;5090898;28;20028;-76
2023/06/08 09:26:37;;;;;;;4.68;2.80;;;;;;;24.30;43.07;94730.53;5090939;28;20028;-75
2023/06/08 09:29:03;;;;;;;6.05;2.88;;;;;;;24.09;42.98;94724.50;5090500;28;20119;-76
2023/06/08 09:31:29;;;;;;;5.13;2.72;;;;;;;23.99;43.76;94734.78;5073840;28;20131;-76
2023/06/08 09:34:10;;;;;;;6.55;2.67;;;;;;;24.15;42.62;94724.69;5090235;28;20028;-76
2023/06/08 09:36:37;;;;;;;4.55;3.00;;;;;;;24.18;42.42;94732.22;5090345;28;20043;-76
2023/06/08 09:39:06;;;;;;;3.80;2.70;;;;;;;24.33;42.86;94716.84;5090425;28;20085;-76
2023/06/08 09:41:32;;;;;;;5.90;2.90;;;;;;;24.36;42.92;94723.56;5090665;28;20052;-75
2023/06/08 09:43:58;;;;;;;3.38;2.70;;;;;;;24.35;42.28;94708.63;5090412;28;20084;-76
2023/06/08 09:46:41;;;;;;;3.80;2.60;;;;;;;24.27;42.50;94718.50;5056309;28;20043;-76
2023/06/08 09:49:07;;;;;;;3.22;2.67;;;;;;;24.29;41.23;94710.31;5091393;28;20052;-75
2023/06/08 09:51:36;;;;;;;4.22;2.83;;;;;;;24.32;42.03;94712.53;5090542;28;20032;-75
2023/06/08 09:54:02;;;;;;;5.97;2.60;;;;;;;24.50;42.71;94706.53;5056795;28;20032;-76
2023/06/08 09:56:27;;;;;;;6.40;2.78;;;;;;;24.48;42.66;94706.75;5090333;28;20417;-75
2023/06/08 09:58:57;;;;;;;5.10;2.50;;;;;;;24.58;43.02;94700.97;5073165;28;20436;-75
2023/06/08 10:01:35;;;;;;;4.65;2.47;;;;;;;24.42;42.56;94689.00;5090507;28;20505;-75
2023/06/08 10:04:02;;;;;;;3.08;2.50;;;;;;;24.79;41.79;94680.34;5073892;28;20035;-75
2023/06/08 10:06:29;;;;;;;5.00;3.13;;;;;;;24.72;43.10;94680.41;5073553;28;20042;-76
2023/06/08 10:08:54;;;;;;;3.70;2.58;;;;;;;24.66;42.23;94694.56;5073239;28;20028;-76
2023/06/08 10:11:20;;;;;;;6.10;2.70;;;;;;;24.49;42.54;94702.25;5073292;28;20406;-76
2023/06/08 10:13:45;;;;;;;3.90;2.67;;;;;;;24.45;42.43;94688.59;5073155;28;20028;-76
2023/06/08 10:16:11;;;;;;;3.60;2.70;;;;;;;24.56;42.41;94684.44;5090439;28;20040;-76
2023/06/08 10:18:36;;;;;;;3.90;2.60;;;;;;;24.61;42.27;94683.78;5090028;28;20032;-76
2023/06/08 10:21:02;;;;;;;5.55;2.90;;;;;;;24.70;42.84;94679.81;5073061;28;20043;-75
2023/06/08 10:23:28;;;;;;;4.18;2.20;;;;;;;24.77;41.43;94672.63;5056387;28;20108;-75
2023/06/08 10:25:53;;;;;;;3.90;2.80;;;;;;;24.69;41.59;94660.41;5056660;28;20039;-75
2023/06/08 10:28:20;;;;;;;4.22;2.60;;;;;;;24.68;40.94;94668.59;5090105;28;20064;-75
2023/06/08 10:30:45;;;;;;;4.45;2.65;;;;;;;24.64;40.89;94662.09;5091363;28;20062;-76
2023/06/08 10:33:16;;;;;;;4.55;2.70;;;;;;;24.81;41.30;94662.34;5090092;28;20036;-76
2023/06/08 10:36:01;;;;;;;3.38;2.40;;;;;;;24.79;40.97;94659.09;5074075;28;20059;-75
2023/06/08 10:38:26;;;;;;;2.95;2.30;;;;;;;24.69;40.71;94662.28;5090210;28;20032;-75
2023/06/08 10:40:52;;;;;;;4.25;2.72;;;;;;;24.91;40.09;94657.38;5090154;28;20417;-76
2023/06/08 10:43:22;;;;;;;7.22;2.53;;;;;;;25.07;40.88;94655.97;5090839;28;20103;-75
2023/06/08 10:45:48;;;;;;;4.43;2.63;;;;;;;25.23;40.99;94652.75;5090089;28;20071;-75
2023/06/08 10:48:20;;;;;;;4.60;2.72;;;;;;;25.10;40.48;94645.72;5089616;28;20052;-76
2023/06/08 10:50:46;;;;;;;4.03;2.47;;;;;;;25.26;40.63;94641.66;5073425;28;20032;-76
2023/06/08 10:53:12;;;;;;;4.70;2.30;;;;;;;25.22;40.31;94651.13;5072935;28;20063;-76
2023/06/08 10:55:37;;;;;;;5.07;2.17;;;;;;;25.13;39.83;94641.78;5073133;28;20488;-76
2023/06/08 10:58:15;;;;;;;4.93;2.20;;;;;;;25.27;38.71;94635.34;5073056;28;20028;-75
2023/06/08 11:00:44;;;;;;;2.92;2.10;;;;;;;25.24;39.48;94632.28;5094495;28;20065;-75
2023/06/08 11:03:16;;;;;;;3.37;2.30;;;;;;;25.14;39.04;94632.81;5094780;28;20458;-76
2023/06/08 11:05:43;;;;;;;3.28;2.35;;;;;;;25.29;39.29;94608.53;5094648;28;20277;-76
2023/06/08 11:08:10;;;;;;;3.80;2.42;;;;;;;25.22;39.45;94613.94;5076768;28;20039;-76
2023/06/08 11:10:37;;;;;;;4.22;2.47;;;;;;;25.39;38.16;94622.91;5060040;28;20040;-75
2023/06/08 11:13:10;;;;;;;5.75;2.30;;;;;;;25.53;37.48;94617.44;5076468;28;20119;-75
2023/06/08 11:15:39;;;;;;;6.40;2.10;;;;;;;25.40;37.26;94613.91;5093353;28;20068;-76
2023/06/08 11:18:07;;;;;;;3.72;2.45;;;;;;;25.44;37.70;94608.16;5092946;28;20157;-75
2023/06/08 11:20:32;;;;;;;3.13;2.10;;;;;;;25.34;38.35;94593.53;5076378;28;20044;-75
2023/06/08 11:22:58;;;;;;;4.55;2.10;;;;;;;25.68;37.79;94604.53;5093076;28;20394;-75
2023/06/08 11:25:24;;;;;;;3.08;2.20;;;;;;;25.49;37.49;94602.94;5076111;28;20047;-76
2023/06/08 11:27:57;;;;;;;3.67;2.20;;;;;;;25.48;37.85;94593.38;5075862;28;20026;-75
2023/06/08 11:30:26;;;;;;;2.95;2.10;;;;;;;25.34;38.44;94598.84;5093110;28;20097;-75
2023/06/08 11:32:51;;;;;;;2.97;2.22;;;;;;;25.52;39.28;94590.03;5093995;28;20024;-75